Thursday, July 19, 2018, 5:33 AM GMT
Back to Local

CWJB, Ste Foy CS , Que.

Location: , , Canada Lat: 47.3
Local Time: 5:33 AM GMT ( 5:33 GMT) Lon: -71.267
Time Zone: GMT Elev: 298 ft

Show me the last for .
Show Coded

Time T Td Feel RH Dir Speed Gust Alt SLP Vis Weather Sky Remarks
2018-07-19 05:00 57 - - 0 310° 2 - - - 0 None
2018-07-19 04:00 58 - - 0 310° 1 - - - 0 None
2018-07-19 03:00 60 - - 0 320° 2 - - - 0 None
2018-07-19 02:00 64 46 - 51 330° 3 - - - 0 None
2018-07-19 01:00 67 47 - 48 210° 3 - - - 0 None
2018-07-19 00:00 69 44 - 39 180° 2 - - - 0 None
2018-07-18 23:00 71 41 - 33 330° 3 - - - 0 None
2018-07-18 22:00 71 42 - 35 330° 5 - - - 0 None
2018-07-18 21:00 72 46 - 39 330° 3 - - - 0 None
2018-07-18 20:00 72 47 75 41 320° 7 - - - 0 None
2018-07-18 16:00 68 - - 0 330° 7 - - - 0 None
2018-07-18 15:00 66 - - 0 320° 7 - - - 0 None
2018-07-18 14:00 65 - - 0 320° 8 - - - 0 None
2018-07-18 13:00 63 - - 0 330° 6 - - - 0 Peak wind: 19 mph (17 kts) from 290° at 27 min
2018-07-18 12:00 61 - - 0 310° 7 - - - 0 None
2018-07-18 11:00 60 - - 0 330° 5 - - - 0 None
2018-07-18 10:00 59 - - 0 320° 6 - - - 0 None
2018-07-18 09:00 59 - - 0 320° 5 - - - 0 None
2018-07-18 08:00 60 - - 0 320° 5 - - - 0 None
2018-07-18 07:00 62 - - 0 310° 7 - - - 0 None
2018-07-18 06:00 64 - - 0 320° 6 - - - 0 None

Support USWX by starting your Amazon purchase here.